Terminal Aerodrome Forecast
Issued by NWS

Home | Current Version | Previous Version | Text Only | Print | Product List | Glossary On
Versions: 1 2 3 4 5 6 7 8 9 10 11 12 13 14 15 16 17 18 19 20
661
FTUS42 KJAX 131720
TAFCRG
TAF
KCRG 131720Z 1318/1418 34010G17KT P6SM SKC
     FM132300 36005KT P6SM SKC
     FM141100 03010KT P6SM BKN035=

USA.gov is the U.S. government's official web portal to all federal, state and local government web resources and services.